Terminal Aerodrome Forecast
Issued by NWS

Home | Current Version | Previous Version | Text Only | Print | Product List | Glossary On
Versions: 1 2 3 4 5 6 7 8 9 10 11 12 13
000
FTUS42 TJSJ 241748
TAFJBQ
TAF
TJBQ 241748Z 2418/2518 08019G26KT P6SM FEW030 SCT050
     FM242200 08014KT P6SM FEW030
     FM250100 11008KT P6SM SCT030
     FM251400 08016KT P6SM SCT025
      AMD NOT SKED 2502/2511=

USA.gov is the U.S. government's official web portal to all federal, state and local government web resources and services.